createdAt,value
2023-01-02T00:01:18.382Z,11.70
2023-01-02T00:04:07.569Z,11.70
2023-01-02T00:06:55.488Z,11.80
2023-01-02T00:09:43.036Z,11.70
2023-01-02T00:12:30.357Z,12.10
2023-01-02T00:15:18.000Z,12.10
2023-01-02T00:18:05.412Z,12.20
2023-01-02T00:20:58.912Z,14.80
2023-01-02T00:23:46.259Z,12.30
2023-01-02T00:26:34.336Z,12.20
2023-01-02T00:32:09.646Z,12.10
2023-01-02T00:34:57.675Z,12.10
2023-01-02T00:37:47.092Z,12.10
2023-01-02T00:40:34.483Z,12.50
2023-01-02T00:43:23.207Z,12.30
2023-01-02T00:46:12.201Z,12.30
2023-01-02T00:49:00.644Z,12.30
2023-01-02T00:51:48.318Z,12.20
2023-01-02T00:57:25.567Z,12.30
2023-01-02T01:00:19.980Z,12.20
2023-01-02T01:03:10.977Z,12.20
2023-01-02T01:05:58.387Z,12.20
2023-01-02T01:08:45.996Z,9.80
2023-01-02T01:11:34.130Z,9.90
2023-01-02T01:14:24.131Z,12.00
2023-01-02T01:17:11.744Z,12.00
2023-01-02T01:19:59.311Z,12.10
2023-01-02T01:22:48.037Z,13.40
2023-01-02T01:25:35.158Z,12.10
2023-01-02T01:28:22.592Z,12.00
2023-01-02T01:31:12.935Z,12.10
2023-01-02T01:34:00.548Z,12.10
2023-01-02T01:36:48.579Z,11.80
2023-01-02T01:39:36.019Z,12.00
2023-01-02T01:42:23.617Z,12.00
2023-01-02T01:45:15.868Z,12.00
2023-01-02T01:48:04.988Z,11.90
2023-01-02T01:50:52.428Z,12.00
2023-01-02T01:53:40.341Z,12.00
2023-01-02T01:56:29.038Z,12.20
2023-01-02T01:59:17.666Z,11.90
2023-01-02T02:02:05.132Z,11.90
2023-01-02T02:04:54.387Z,11.90
2023-01-02T02:07:45.547Z,11.90
2023-01-02T02:10:32.903Z,11.90
2023-01-02T02:13:20.623Z,11.90
2023-01-02T02:16:23.869Z,11.80
2023-01-02T02:19:24.962Z,11.80
2023-01-02T02:25:29.319Z,12.80
2023-01-02T02:28:44.229Z,11.80
2023-01-02T02:31:37.386Z,11.80
2023-01-02T02:34:29.844Z,11.80
2023-01-02T02:37:21.862Z,10.20
2023-01-02T02:40:18.366Z,13.00
2023-01-02T02:43:11.715Z,13.10
2023-01-02T02:46:04.981Z,11.90
2023-01-02T02:48:57.571Z,12.10
2023-01-02T02:51:48.214Z,12.10
2023-01-02T02:54:38.732Z,12.10
2023-01-02T02:57:26.507Z,12.20
2023-01-02T03:00:16.077Z,12.10
2023-01-02T03:03:03.844Z,12.10
2023-01-02T03:06:03.971Z,12.10
2023-01-02T03:08:57.766Z,11.90
2023-01-02T03:11:49.376Z,10.70
2023-01-02T03:14:43.873Z,12.80
2023-01-02T03:17:34.898Z,12.00
2023-01-02T03:20:25.311Z,12.10
2023-01-02T03:23:16.578Z,12.00
2023-01-02T03:26:04.919Z,12.00
2023-01-02T03:28:55.734Z,12.10
2023-01-02T03:31:46.631Z,12.00
2023-01-02T03:34:35.746Z,13.00
2023-01-02T03:37:25.114Z,12.10
2023-01-02T03:40:17.357Z,12.10
2023-01-02T03:43:10.668Z,12.00
2023-01-02T03:46:02.541Z,12.50
2023-01-02T03:48:53.125Z,12.00
2023-01-02T03:51:41.768Z,11.90
2023-01-02T03:54:29.306Z,11.90
2023-01-02T03:57:23.678Z,11.80
2023-01-02T04:00:13.555Z,12.00
2023-01-02T04:03:04.599Z,13.70
2023-01-02T04:05:54.248Z,11.70
2023-01-02T04:08:46.620Z,11.70
2023-01-02T04:11:34.731Z,11.70
2023-01-02T04:14:26.162Z,11.70
2023-01-02T04:17:13.754Z,11.80
2023-01-02T04:20:02.628Z,11.80
2023-01-02T04:22:52.802Z,11.70
2023-01-02T04:25:42.583Z,11.60
2023-01-02T04:28:31.463Z,11.70
2023-01-02T04:31:22.519Z,11.70
2023-01-02T04:34:15.581Z,11.60
2023-01-02T04:37:03.955Z,11.80
2023-01-02T04:39:51.768Z,11.50
2023-01-02T04:42:39.967Z,10.80
2023-01-02T04:45:27.673Z,11.90
2023-01-02T04:48:17.743Z,11.60
2023-01-02T04:51:05.274Z,11.70
2023-01-02T04:53:53.162Z,11.60
2023-01-02T04:56:41.306Z,11.50
2023-01-02T04:59:29.394Z,11.60
2023-01-02T05:02:17.328Z,11.60
2023-01-02T05:05:07.889Z,11.60
2023-01-02T05:07:55.546Z,11.60
2023-01-02T05:13:31.762Z,11.50
2023-01-02T05:16:19.094Z,11.50
2023-01-02T05:19:06.482Z,11.50
2023-01-02T05:22:13.929Z,11.50
2023-01-02T05:25:01.626Z,11.50
2023-01-02T05:27:52.717Z,11.50
2023-01-02T05:30:40.636Z,11.40
2023-01-02T05:33:28.309Z,11.40
2023-01-02T05:36:15.660Z,11.40
2023-01-02T05:39:08.237Z,11.50
2023-01-02T05:41:56.114Z,11.30
2023-01-02T05:44:44.316Z,11.50
2023-01-02T05:47:32.110Z,11.50
2023-01-02T05:50:19.726Z,13.20
2023-01-02T05:53:07.843Z,11.40
2023-01-02T05:55:57.741Z,11.30
2023-01-02T05:58:48.346Z,11.30
2023-01-02T06:01:36.982Z,11.30
2023-01-02T06:04:25.132Z,11.20
2023-01-02T06:07:13.270Z,11.10
2023-01-02T06:10:00.584Z,11.10
2023-01-02T06:12:49.465Z,11.00
2023-01-02T06:15:38.357Z,11.20
2023-01-02T06:18:25.870Z,11.00
2023-01-02T06:21:14.633Z,11.00
2023-01-02T06:24:02.633Z,11.00
2023-01-02T06:26:51.874Z,11.00
2023-01-02T06:29:41.010Z,11.00
2023-01-02T06:32:29.061Z,11.60
2023-01-02T06:35:16.642Z,10.70
2023-01-02T06:38:05.341Z,10.50
2023-01-02T06:40:57.961Z,10.40
2023-01-02T06:43:46.611Z,10.30
2023-01-02T06:46:36.415Z,10.20
2023-01-02T06:52:11.288Z,10.10
2023-01-02T06:55:01.236Z,9.90
2023-01-02T06:57:49.964Z,10.10
2023-01-02T07:00:37.993Z,10.40
2023-01-02T07:03:26.779Z,9.90
2023-01-02T07:06:15.763Z,9.80
2023-01-02T07:09:04.023Z,9.80
2023-01-02T07:11:51.592Z,9.70
2023-01-02T07:14:39.428Z,9.70
2023-01-02T07:17:27.576Z,11.10
2023-01-02T07:20:17.135Z,9.50
2023-01-02T07:23:04.518Z,9.60
2023-01-02T07:25:54.119Z,9.60
2023-01-02T07:28:42.104Z,9.60
2023-01-02T07:31:30.282Z,11.70
2023-01-02T07:34:18.117Z,9.60
2023-01-02T07:37:06.889Z,9.50
2023-01-02T07:39:55.688Z,11.70
2023-01-02T07:42:43.350Z,9.80
2023-01-02T07:45:30.843Z,9.60
2023-01-02T07:48:18.486Z,10.20
2023-01-02T07:51:07.153Z,9.60
2023-01-02T07:53:56.544Z,9.60
2023-01-02T07:56:44.138Z,9.50
2023-01-02T07:59:32.392Z,9.60
2023-01-02T08:02:20.128Z,10.90
2023-01-02T08:05:08.293Z,9.60
2023-01-02T08:07:55.566Z,9.60
2023-01-02T08:10:44.528Z,9.50
2023-01-02T08:13:31.941Z,9.60
2023-01-02T08:16:20.510Z,10.20
2023-01-02T08:19:08.778Z,9.60
2023-01-02T08:21:56.517Z,9.50
2023-01-02T08:24:44.035Z,10.70
2023-01-02T08:27:36.133Z,9.50
2023-01-02T08:30:23.975Z,9.50
2023-01-02T08:33:11.502Z,9.50
2023-01-02T08:35:58.602Z,9.60
2023-01-02T08:38:46.120Z,9.40
2023-01-02T08:41:34.213Z,9.50
2023-01-02T08:44:22.907Z,9.50
2023-01-02T08:47:10.179Z,10.20
2023-01-02T08:49:57.863Z,9.50
2023-01-02T08:52:45.685Z,8.70
2023-01-02T08:55:33.293Z,9.50
2023-01-02T08:58:20.875Z,10.00
2023-01-02T09:01:09.924Z,12.00
2023-01-02T09:03:57.756Z,9.60
2023-01-02T09:06:45.481Z,9.60
2023-01-02T09:09:33.043Z,9.50
2023-01-02T09:12:20.615Z,9.60
2023-01-02T09:15:09.417Z,9.60
2023-01-02T09:17:58.580Z,9.60
2023-01-02T09:20:45.828Z,9.70
2023-01-02T09:23:33.812Z,9.80
2023-01-02T09:26:22.033Z,9.90
2023-01-02T09:29:09.830Z,9.60
2023-01-02T09:31:57.827Z,10.10
2023-01-02T09:34:50.566Z,10.10
2023-01-02T09:37:39.199Z,10.10
2023-01-02T09:40:27.570Z,10.00
2023-01-02T09:43:16.311Z,9.90
2023-01-02T09:46:04.300Z,9.90
2023-01-02T09:48:51.904Z,11.80
2023-01-02T09:51:41.036Z,10.00
2023-01-02T09:54:29.886Z,9.90
2023-01-02T09:57:23.271Z,9.90
2023-01-02T10:00:16.045Z,9.90
2023-01-02T10:03:08.486Z,9.90
2023-01-02T10:06:09.920Z,9.90
2023-01-02T10:09:03.295Z,9.90
2023-01-02T10:11:55.806Z,9.90
2023-01-02T10:14:48.258Z,9.90
2023-01-02T10:17:40.307Z,10.00
2023-01-02T10:20:30.510Z,10.00
2023-01-02T10:23:20.006Z,9.90
2023-01-02T10:26:13.817Z,10.20
2023-01-02T10:29:03.645Z,10.30
2023-01-02T10:31:52.833Z,10.30
2023-01-02T10:34:43.536Z,10.30
2023-01-02T10:37:31.520Z,10.30
2023-01-02T10:40:21.063Z,10.40
2023-01-02T10:43:12.048Z,10.60
2023-01-02T10:46:01.634Z,10.50
2023-01-02T10:48:52.303Z,10.50
2023-01-02T10:51:45.266Z,10.40
2023-01-02T10:54:51.126Z,10.70
2023-01-02T10:57:51.165Z,10.30
2023-01-02T11:00:40.795Z,10.30
2023-01-02T11:03:28.477Z,10.40
2023-01-02T11:06:31.069Z,10.60
2023-01-02T11:09:24.495Z,10.40
2023-01-02T11:12:13.588Z,10.40
2023-01-02T11:15:15.823Z,10.30
2023-01-02T11:18:15.833Z,10.30
2023-01-02T11:21:05.604Z,10.40
2023-01-02T11:23:58.571Z,10.40
2023-01-02T11:26:46.757Z,10.40
2023-01-02T11:29:36.139Z,10.30
2023-01-02T11:32:24.497Z,10.20
2023-01-02T11:35:27.253Z,10.30
2023-01-02T11:38:28.663Z,10.40
2023-01-02T11:41:23.412Z,10.20
2023-01-02T11:44:10.906Z,10.20
2023-01-02T11:47:00.943Z,10.20
2023-01-02T11:49:50.599Z,11.40
2023-01-02T11:52:42.761Z,10.20
2023-01-02T11:55:35.125Z,10.50
2023-01-02T11:58:26.152Z,10.20
2023-01-02T12:01:18.722Z,10.10
2023-01-02T12:04:06.784Z,10.00
2023-01-02T12:07:02.123Z,10.00
2023-01-02T12:09:55.677Z,9.90
2023-01-02T12:12:53.110Z,10.10
2023-01-02T12:15:49.745Z,9.80
2023-01-02T12:18:51.908Z,9.80
2023-01-02T12:21:44.481Z,9.80
2023-01-02T12:24:50.560Z,9.80
2023-01-02T12:27:41.962Z,10.10
2023-01-02T12:30:34.083Z,10.10
2023-01-02T12:33:38.806Z,9.80
2023-01-02T12:36:38.413Z,9.90
2023-01-02T12:39:34.554Z,9.80
2023-01-02T12:42:30.344Z,10.00
2023-01-02T12:45:21.182Z,10.10
2023-01-02T12:48:18.331Z,10.20
2023-01-02T12:51:14.266Z,10.20
2023-01-02T12:54:20.596Z,10.20
2023-01-02T12:57:16.941Z,10.10
2023-01-02T13:00:23.550Z,10.10
2023-01-02T13:03:29.319Z,10.10
2023-01-02T13:06:45.967Z,10.00
2023-01-02T13:09:29.675Z,10.00
2023-01-02T13:12:19.873Z,10.10
2023-01-02T13:15:10.035Z,10.20
2023-01-02T13:18:04.791Z,10.10
2023-01-02T13:20:57.130Z,10.10
2023-01-02T13:23:46.957Z,8.60
2023-01-02T13:26:34.481Z,10.20
2023-01-02T13:29:23.757Z,8.10
2023-01-02T13:32:12.377Z,10.10
2023-01-02T13:35:02.310Z,9.00
2023-01-02T13:37:53.356Z,10.10
2023-01-02T13:43:29.691Z,10.10
2023-01-02T13:46:53.467Z,10.20
2023-01-02T13:49:30.983Z,10.20
2023-01-02T13:52:20.484Z,10.10
2023-01-02T13:55:32.447Z,10.20
2023-01-02T13:58:41.290Z,10.10
2023-01-02T14:01:45.053Z,10.10
2023-01-02T14:04:38.990Z,10.10
2023-01-02T14:07:41.881Z,10.10
2023-01-02T14:10:35.629Z,10.10
2023-01-02T14:13:25.416Z,10.00
2023-01-02T14:16:20.342Z,9.90
2023-01-02T14:19:26.680Z,10.10
2023-01-02T14:22:15.376Z,10.20
2023-01-02T14:25:05.217Z,9.30
2023-01-02T14:27:55.366Z,10.40
2023-01-02T14:30:44.178Z,10.40
2023-01-02T14:33:33.082Z,10.40
2023-01-02T14:36:26.378Z,10.10
2023-01-02T14:39:20.567Z,9.70
2023-01-02T14:42:37.100Z,9.10
2023-01-02T14:45:28.323Z,9.10
2023-01-02T14:48:18.365Z,8.90
2023-01-02T14:51:09.970Z,8.70
2023-01-02T14:54:01.599Z,8.60
2023-01-02T14:56:50.845Z,8.50
2023-01-02T14:59:39.619Z,8.50
2023-01-02T15:02:31.436Z,8.50
2023-01-02T15:05:21.766Z,8.50
2023-01-02T15:08:12.211Z,8.40
2023-01-02T15:11:22.384Z,8.10
2023-01-02T15:14:10.473Z,8.40
2023-01-02T15:16:59.965Z,9.30
2023-01-02T15:19:49.943Z,8.20
2023-01-02T15:22:38.755Z,8.10
2023-01-02T15:25:37.150Z,8.00
2023-01-02T15:28:29.676Z,7.90
2023-01-02T15:31:17.644Z,7.80
2023-01-02T15:34:05.933Z,8.90
2023-01-02T15:36:54.605Z,7.50
2023-01-02T15:39:45.692Z,9.90
2023-01-02T15:42:50.254Z,7.50
2023-01-02T15:45:43.631Z,7.60
2023-01-02T15:48:35.208Z,7.60
2023-01-02T15:51:40.102Z,7.50
2023-01-02T15:54:33.474Z,7.50
2023-01-02T15:57:21.523Z,7.50
2023-01-02T16:00:24.757Z,7.50
2023-01-02T16:03:14.176Z,7.50
2023-01-02T16:06:06.882Z,7.30
2023-01-02T16:08:56.301Z,7.60
2023-01-02T16:11:47.459Z,7.60
2023-01-02T16:14:36.742Z,7.60
2023-01-02T16:17:29.130Z,7.70
2023-01-02T16:20:20.367Z,7.70
2023-01-02T16:23:08.772Z,7.80
2023-01-02T16:25:57.640Z,7.80
2023-01-02T16:28:47.301Z,7.80
2023-01-02T16:31:49.883Z,7.90
2023-01-02T16:34:38.428Z,7.90
2023-01-02T16:37:33.972Z,7.90
2023-01-02T16:41:01.734Z,7.90
2023-01-02T16:43:51.382Z,7.90
2023-01-02T16:46:39.739Z,7.90
2023-01-02T16:49:27.315Z,7.90
2023-01-02T16:52:14.783Z,8.00
2023-01-02T16:55:02.262Z,7.90
2023-01-02T16:57:50.563Z,7.90
2023-01-02T17:00:43.588Z,8.00
2023-01-02T17:03:31.725Z,8.10
2023-01-02T17:06:24.370Z,8.10
2023-01-02T17:09:12.068Z,8.10
2023-01-02T17:12:03.189Z,8.10
2023-01-02T17:14:51.605Z,5.90
2023-01-02T17:17:40.677Z,8.00
2023-01-02T17:20:28.804Z,7.90
2023-01-02T17:23:19.503Z,7.90
2023-01-02T17:26:07.531Z,7.80
2023-01-02T17:28:55.439Z,7.80
2023-01-02T17:31:43.785Z,7.70
2023-01-02T17:34:32.739Z,7.70
2023-01-02T17:37:22.329Z,7.80
2023-01-02T17:40:11.145Z,8.30
2023-01-02T17:42:59.335Z,7.60
2023-01-02T17:45:46.755Z,7.50
2023-01-02T17:48:34.773Z,8.10
2023-01-02T17:51:24.075Z,7.40
2023-01-02T17:54:17.423Z,7.40
2023-01-02T17:57:06.347Z,7.40
2023-01-02T17:59:53.768Z,7.40
2023-01-02T18:02:42.656Z,7.40
2023-01-02T18:05:31.141Z,7.30
2023-01-02T18:08:19.846Z,7.20
2023-01-02T18:11:10.484Z,7.30
2023-01-02T18:14:00.881Z,7.30
2023-01-02T18:16:50.792Z,7.20
2023-01-02T18:19:41.845Z,7.20
2023-01-02T18:22:30.561Z,7.10
2023-01-02T18:25:20.492Z,7.00
2023-01-02T18:28:16.771Z,7.00
2023-01-02T18:31:11.675Z,6.90
2023-01-02T18:34:02.025Z,6.80
2023-01-02T18:36:50.805Z,7.00
2023-01-02T18:39:43.088Z,6.90
2023-01-02T18:42:34.798Z,6.90
2023-01-02T18:45:22.998Z,6.90
2023-01-02T18:48:15.364Z,6.80
2023-01-02T18:51:03.196Z,6.90
2023-01-02T18:53:51.251Z,6.90
2023-01-02T18:56:38.524Z,6.80
2023-01-02T18:59:30.624Z,6.80
2023-01-02T19:02:24.777Z,6.80
2023-01-02T19:05:20.626Z,6.70
2023-01-02T19:08:15.296Z,6.60
2023-01-02T19:11:22.333Z,6.60
2023-01-02T19:14:12.626Z,6.50
2023-01-02T19:17:06.473Z,6.40
2023-01-02T19:19:56.694Z,5.10
2023-01-02T19:22:44.343Z,6.40
2023-01-02T19:25:31.741Z,6.30
2023-01-02T19:28:21.205Z,6.40
2023-01-02T19:31:12.926Z,6.40
2023-01-02T19:34:03.890Z,6.40
2023-01-02T19:36:52.115Z,6.50
2023-01-02T19:39:42.418Z,6.60
2023-01-02T19:42:31.989Z,6.50
2023-01-02T19:45:19.916Z,6.50
2023-01-02T19:48:12.578Z,6.50
2023-01-02T19:51:05.575Z,6.50
2023-01-02T19:53:52.921Z,6.50
2023-01-02T19:56:40.345Z,6.50
2023-01-02T19:59:28.058Z,6.50
2023-01-02T20:02:16.519Z,6.40
2023-01-02T20:05:04.000Z,6.20
2023-01-02T20:07:54.466Z,6.20
2023-01-02T20:10:41.875Z,6.10
2023-01-02T20:13:29.825Z,6.00
2023-01-02T20:16:18.030Z,6.00
2023-01-02T20:19:05.656Z,5.90
2023-01-02T20:21:53.723Z,5.90
2023-01-02T20:24:42.746Z,5.90
2023-01-02T20:27:30.510Z,5.90
2023-01-02T20:30:23.954Z,5.80
2023-01-02T20:33:12.154Z,5.80
2023-01-02T20:35:59.831Z,5.70
2023-01-02T20:38:50.784Z,5.70
2023-01-02T20:41:40.367Z,8.40
2023-01-02T20:44:27.996Z,5.90
2023-01-02T20:47:16.518Z,5.70
2023-01-02T20:50:03.729Z,5.60
2023-01-02T20:52:56.712Z,5.60
2023-01-02T20:55:44.681Z,5.70
2023-01-02T20:58:34.471Z,5.80
2023-01-02T21:01:22.668Z,6.00
2023-01-02T21:04:10.555Z,5.80
2023-01-02T21:06:58.356Z,5.70
2023-01-02T21:09:45.623Z,5.70
2023-01-02T21:12:50.777Z,5.70
2023-01-02T21:15:46.590Z,5.60
2023-01-02T21:18:37.639Z,5.60
2023-01-02T21:21:25.425Z,5.60
2023-01-02T21:24:13.972Z,5.40
2023-01-02T21:27:01.567Z,5.40
2023-01-02T21:29:48.895Z,5.30
2023-01-02T21:32:40.067Z,5.20
2023-01-02T21:35:27.948Z,5.00
2023-01-02T21:38:15.485Z,5.10
2023-01-02T21:41:18.133Z,5.10
2023-01-02T21:44:05.682Z,4.90
2023-01-02T21:46:53.259Z,4.90
2023-01-02T21:49:42.620Z,4.90
2023-01-02T21:52:33.349Z,5.00
2023-01-02T21:55:21.661Z,4.90
2023-01-02T21:58:14.117Z,4.90
2023-01-02T22:01:02.699Z,4.90
2023-01-02T22:03:50.666Z,4.90
2023-01-02T22:07:04.204Z,4.90
2023-01-02T22:09:48.543Z,5.20
2023-01-02T22:12:36.292Z,4.80
2023-01-02T22:15:23.683Z,4.70
2023-01-02T22:18:11.572Z,4.70
2023-01-02T22:20:59.034Z,4.60
2023-01-02T22:23:47.922Z,4.50
2023-01-02T22:26:35.989Z,4.50
2023-01-02T22:29:33.179Z,4.50
2023-01-02T22:32:33.780Z,4.40
2023-01-02T22:35:21.736Z,4.40
2023-01-02T22:38:09.322Z,3.50
2023-01-02T22:40:59.540Z,4.70
2023-01-02T22:43:50.717Z,4.40
2023-01-02T22:46:40.244Z,4.40
2023-01-02T22:49:30.548Z,4.40
2023-01-02T22:52:17.994Z,4.40
2023-01-02T22:55:12.218Z,4.30
2023-01-02T22:58:01.403Z,4.30
2023-01-02T23:00:49.481Z,4.30
2023-01-02T23:03:41.063Z,4.30
2023-01-02T23:06:28.913Z,4.40
2023-01-02T23:09:16.723Z,4.40
2023-01-02T23:12:04.728Z,4.30
2023-01-02T23:14:53.749Z,4.20
2023-01-02T23:17:58.395Z,4.30
2023-01-02T23:20:45.951Z,4.30
2023-01-02T23:23:33.463Z,4.30
2023-01-02T23:26:20.987Z,4.20
2023-01-02T23:29:09.445Z,4.10
2023-01-02T23:31:58.999Z,4.10
2023-01-02T23:34:46.866Z,4.00
2023-01-02T23:37:34.934Z,4.00
2023-01-02T23:40:22.336Z,4.00
2023-01-02T23:43:09.843Z,3.90
2023-01-02T23:45:57.996Z,3.90
2023-01-02T23:48:47.395Z,3.90
2023-01-02T23:51:34.587Z,3.90
2023-01-02T23:54:22.239Z,3.90
2023-01-02T23:57:10.046Z,3.90
2023-01-02T23:59:57.698Z,4.00
